College Station, TX

8:39 PM CDT on April 01, 2015 (GMT -0500)
Easterwood | | Change Station
CLOSE
Current Station
Airport
Location: College Station,
Elevation: 328 ft
Nearby Weather Stations

Elev 328 ft 30.59 °N, 96.36 °W | Updated 46 minutes ago

Mostly Cloudy
Mostly Cloudy
69 °F
Feels Like 69 °F
N
9
Wind Variable Wind from ESE

Today
High -- | Low -- °F
--% Chance of Precip.
Yesterday
High -- | Low -- °F
Precip. -- in
7:14 AM 7:44 PM
Waxing Gibbous, 95% visible
Pressure 29.90 in
Visibility 10.0 miles
Clouds Few 9000 ft
Dew Point 65 °F
Humidity 87%
Rainfall 0.03 in
Snow Depth Not available.
UV 0 out of 12
Pollen 9.00 out of 12
Air Quality Not available.
Flu Activity Not available.
METAR KCLL 020053Z 12008KT 10SM FEW090 21/18 A2991 RMK AO2 SLP125 T02060183

More Conditions Fewer Conditions

Pressure 29.90 in
Visibility 10.0 miles
Clouds Few 9000 ft
Dew Point 65 °F
Humidity 87%
Rainfall 0.03 in
Snow Depth Not available.
UV 0 out of 12
Pollen 9.00 out of 12
Air Quality Not available.
Flu Activity Not available.
METAR KCLL 020053Z 12008KT 10SM FEW090 21/18 A2991 RMK AO2 SLP125 T02060183

More Conditions Fewer Conditions

10-Day Weather Forecast

Almanac

Astronomy

Apr. 01, 2015 Rise Set
Actual Time
Civil Twilight
Nautical Twilight
Astronomical Twilight
Moon
Length of Visible Light
Length of Day
Tomorrow will be .
, % of the Moon is Illuminated

Today's Extremes

State Highs State Lows

Community

WunderPhotos

Upload Photos

1,810,148 photos uploaded!

WunderBlogs® & News

Nearby

Air Quality

  Air Quality AQ Index Pollutant
Not available.

Snow Depth

Station Depth Elevation

Earthquake Activity

City Distance Mag. Time & Date
Minimum magnitude displayed is 2.5.

Coastal Water Temperatures

Place Temperature

Stations

Nearby Weather Stations

Station Location Temp. Windchill Dew Point Humidity Wind Precip. Elev Updated Type